Time;durP1;ratioP1;P1;durP2;ratioP2;P2;SDS_P1;SDS_P2;PMS_P1;PMS_P2;Temp;Humidity;BMP_temperature;BMP_pressure;BME280_temperature;BME280_humidity;BME280_pressure;Samples;Min_cycle;Max_cycle;Signal;HPM_P1;HPM_P2
2019/09/23 00:00:44;;;;;;;4.01;3.31;;;;;;;20.66;51.29;100054.05;;;;-56
2019/09/23 00:03:41;;;;;;;4.55;3.39;;;;;;;20.65;51.30;100055.62;;;;-54
2019/09/23 00:06:42;;;;;;;3.73;3.37;;;;;;;20.65;51.28;100060.38;;;;-55
2019/09/23 00:09:42;;;;;;;3.48;3.18;;;;;;;20.64;51.30;100062.20;;;;-54
2019/09/23 00:12:42;;;;;;;3.95;3.25;;;;;;;20.63;51.29;100058.07;;;;-54
2019/09/23 00:15:41;;;;;;;3.83;3.26;;;;;;;20.63;51.29;100062.44;;;;-55
2019/09/23 00:18:41;;;;;;;3.78;3.26;;;;;;;20.63;51.37;100063.61;;;;-54
2019/09/23 00:21:41;;;;;;;4.20;3.51;;;;;;;20.63;51.35;100068.80;;;;-55
2019/09/23 00:24:41;;;;;;;3.89;3.43;;;;;;;20.63;51.35;100074.68;;;;-55
2019/09/23 00:27:41;;;;;;;3.40;3.08;;;;;;;20.62;51.35;100078.84;;;;-55
2019/09/23 00:30:41;;;;;;;3.57;3.08;;;;;;;20.62;51.31;100078.77;;;;-56
2019/09/23 00:33:41;;;;;;;3.85;3.04;;;;;;;20.62;51.37;100081.59;;;;-54
2019/09/23 00:36:41;;;;;;;4.19;3.04;;;;;;;20.61;51.37;100082.77;;;;-56
2019/09/23 00:39:41;;;;;;;3.42;3.04;;;;;;;20.60;51.37;100087.83;;;;-55
2019/09/23 00:42:41;;;;;;;3.45;3.15;;;;;;;20.60;51.38;100091.86;;;;-55
2019/09/23 00:45:41;;;;;;;3.59;3.29;;;;;;;20.60;51.35;100093.03;;;;-55
2019/09/23 00:48:41;;;;;;;3.41;2.96;;;;;;;20.60;51.38;100096.72;;;;-54
2019/09/23 00:51:41;;;;;;;3.60;3.21;;;;;;;20.59;51.40;100097.80;;;;-55
2019/09/23 00:54:42;;;;;;;3.31;3.01;;;;;;;20.60;51.42;100109.98;;;;-56
2019/09/23 00:57:41;;;;;;;3.31;3.01;;;;;;;20.59;51.43;100111.55;;;;-55
2019/09/23 01:00:41;;;;;;;3.51;3.10;;;;;;;20.58;51.42;100113.53;;;;-55
2019/09/23 01:03:41;;;;;;;3.37;3.07;;;;;;;20.58;51.43;100114.10;;;;-54
2019/09/23 01:06:41;;;;;;;3.92;2.99;;;;;;;20.58;51.45;100117.36;;;;-55
2019/09/23 01:09:41;;;;;;;3.39;3.09;;;;;;;20.58;51.47;100119.23;;;;-56
2019/09/23 01:12:41;;;;;;;3.73;3.28;;;;;;;20.58;51.51;100124.84;;;;-55
2019/09/23 01:15:41;;;;;;;3.27;2.97;;;;;;;20.57;51.48;100135.55;;;;-55
2019/09/23 01:18:41;;;;;;;3.53;3.07;;;;;;;20.57;51.52;100142.59;;;;-54
2019/09/23 01:21:41;;;;;;;3.91;3.03;;;;;;;20.56;51.50;100145.41;;;;-55
2019/09/23 01:24:41;;;;;;;3.35;3.05;;;;;;;20.57;51.48;100149.47;;;;-55
2019/09/23 01:27:41;;;;;;;3.18;2.79;;;;;;;20.57;51.50;100156.69;;;;-55
2019/09/23 01:30:41;;;;;;;3.27;2.95;;;;;;;20.56;51.54;100170.06;;;;-56
2019/09/23 01:33:41;;;;;;;3.31;2.95;;;;;;;20.56;51.47;100180.97;;;;-55
2019/09/23 01:36:41;;;;;;;3.13;2.83;;;;;;;20.56;51.52;100195.06;;;;-54
2019/09/23 01:39:41;;;;;;;3.15;2.85;;;;;;;20.55;51.48;100208.62;;;;-55
2019/09/23 01:42:42;;;;;;;3.26;2.90;;;;;;;20.56;51.51;100224.83;;;;-55
2019/09/23 01:45:41;;;;;;;3.02;2.72;;;;;;;20.55;51.50;100233.95;;;;-51
2019/09/23 01:48:41;;;;;;;2.93;2.73;;;;;;;20.55;51.49;100238.59;;;;-51
2019/09/23 01:51:41;;;;;;;3.03;2.68;;;;;;;20.55;51.48;100243.85;;;;-51
2019/09/23 01:54:41;;;;;;;3.50;3.07;;;;;;;20.55;51.55;100247.11;;;;-51
2019/09/23 01:57:41;;;;;;;3.20;2.81;;;;;;;20.54;51.53;100247.37;;;;-50
2019/09/23 02:00:41;;;;;;;3.75;2.83;;;;;;;20.54;51.53;100247.44;;;;-50
2019/09/23 02:03:41;;;;;;;3.21;2.91;;;;;;;20.54;51.55;100257.17;;;;-50
2019/09/23 02:06:41;;;;;;;4.01;2.95;;;;;;;20.54;51.53;100265.39;;;;-51
2019/09/23 02:09:41;;;;;;;3.07;2.77;;;;;;;20.54;51.52;100264.35;;;;-51
2019/09/23 02:12:41;;;;;;;3.10;2.78;;;;;;;20.53;51.55;100265.79;;;;-50
2019/09/23 02:15:41;;;;;;;3.05;2.75;;;;;;;20.53;51.54;100268.31;;;;-48
2019/09/23 02:18:41;;;;;;;3.16;2.86;;;;;;;20.52;51.59;100274.98;;;;-48
2019/09/23 02:21:41;;;;;;;2.97;2.67;;;;;;;20.52;51.58;100280.34;;;;-48
2019/09/23 02:24:41;;;;;;;3.52;3.02;;;;;;;20.53;51.62;100283.61;;;;-48
2019/09/23 02:27:41;;;;;;;2.90;2.59;;;;;;;20.52;51.59;100287.77;;;;-48
2019/09/23 02:30:41;;;;;;;2.86;2.60;;;;;;;20.52;51.61;100292.06;;;;-48
2019/09/23 02:33:41;;;;;;;2.91;2.64;;;;;;;20.53;51.59;100295.52;;;;-48
2019/09/23 02:36:41;;;;;;;3.03;2.73;;;;;;;20.52;51.64;100294.61;;;;-48
2019/09/23 02:39:41;;;;;;;4.03;2.59;;;;;;;20.51;51.63;100299.10;;;;-48
2019/09/23 02:42:41;;;;;;;2.90;2.70;;;;;;;20.51;51.64;100298.09;;;;-48
2019/09/23 02:45:41;;;;;;;3.08;2.77;;;;;;;20.52;51.65;100303.87;;;;-48
2019/09/23 02:48:41;;;;;;;2.93;2.62;;;;;;;20.51;51.64;100302.02;;;;-48
2019/09/23 02:51:41;;;;;;;2.54;2.34;;;;;;;20.51;51.71;100307.79;;;;-48
2019/09/23 02:55:41;;;;;;;2.68;2.48;;;;;;;20.50;51.72;100311.20;;;;-48
2019/09/23 02:58:41;;;;;;;2.73;2.52;;;;;;;20.50;51.66;100313.12;;;;-48
2019/09/23 03:01:41;;;;;;;2.71;2.51;;;;;;;20.50;51.64;100311.65;;;;-48
2019/09/23 03:04:41;;;;;;;2.66;2.46;;;;;;;20.50;51.72;100315.30;;;;-48
2019/09/23 03:07:41;;;;;;;2.85;2.62;;;;;;;20.49;51.75;100312.75;;;;-48
2019/09/23 03:10:41;;;;;;;3.39;2.64;;;;;;;20.50;51.71;100312.38;;;;-48
2019/09/23 03:13:41;;;;;;;2.56;2.36;;;;;;;20.50;51.78;100309.77;;;;-48
2019/09/23 03:16:41;;;;;;;2.77;2.55;;;;;;;20.50;51.75;100313.33;;;;-48
2019/09/23 03:19:41;;;;;;;2.62;2.42;;;;;;;20.49;51.75;100319.05;;;;-48
2019/09/23 03:22:41;;;;;;;2.83;2.59;;;;;;;20.49;51.72;100321.47;;;;-48
2019/09/23 03:25:41;;;;;;;2.79;2.59;;;;;;;20.48;51.77;100321.87;;;;-48
2019/09/23 03:28:41;;;;;;;2.49;2.29;;;;;;;20.49;51.75;100321.97;;;;-48
2019/09/23 03:31:41;;;;;;;2.51;2.28;;;;;;;20.48;51.76;100326.67;;;;-48
2019/09/23 03:34:41;;;;;;;2.50;2.30;;;;;;;20.49;51.76;100327.41;;;;-48
2019/09/23 03:37:41;;;;;;;2.55;2.35;;;;;;;20.48;51.78;100327.17;;;;-48
2019/09/23 03:40:41;;;;;;;2.51;2.31;;;;;;;20.48;51.74;100331.27;;;;-48
2019/09/23 03:43:41;;;;;;;2.87;2.49;;;;;;;20.48;51.73;100335.96;;;;-48
2019/09/23 03:47:04;;;;;;;2.47;2.27;;;;;;;20.48;51.78;100340.80;;;;-48
2019/09/23 03:49:43;;;;;;;2.61;2.41;;;;;;;20.48;51.78;100345.19;;;;-48
2019/09/23 03:52:41;;;;;;;3.18;2.30;;;;;;;20.47;51.78;100346.42;;;;-48
2019/09/23 03:55:41;;;;;;;2.55;2.35;;;;;;;20.47;51.73;100348.61;;;;-48
2019/09/23 03:58:41;;;;;;;3.05;2.41;;;;;;;20.48;51.78;100353.38;;;;-48
2019/09/23 04:01:41;;;;;;;2.45;2.25;;;;;;;20.47;51.80;100358.06;;;;-48
2019/09/23 04:04:41;;;;;;;2.54;2.34;;;;;;;20.47;51.79;100359.14;;;;-48
2019/09/23 04:07:41;;;;;;;2.48;2.28;;;;;;;20.47;51.79;100365.45;;;;-48
2019/09/23 04:10:41;;;;;;;2.45;2.25;;;;;;;20.47;51.77;100367.70;;;;-48
2019/09/23 04:13:41;;;;;;;2.99;2.35;;;;;;;20.47;51.78;100365.18;;;;-48
2019/09/23 04:16:41;;;;;;;2.44;2.24;;;;;;;20.46;51.81;100372.63;;;;-48
2019/09/23 04:19:41;;;;;;;2.45;2.25;;;;;;;20.46;51.77;100372.95;;;;-48
2019/09/23 04:22:41;;;;;;;2.40;2.20;;;;;;;20.46;51.80;100377.83;;;;-48
2019/09/23 04:25:41;;;;;;;2.63;2.43;;;;;;;20.46;51.78;100379.33;;;;-48
2019/09/23 04:28:41;;;;;;;2.49;2.29;;;;;;;20.46;51.81;100383.70;;;;-48
2019/09/23 04:31:41;;;;;;;2.57;2.27;;;;;;;20.47;51.76;100387.42;;;;-48
2019/09/23 04:34:41;;;;;;;2.35;2.15;;;;;;;20.46;51.83;100384.70;;;;-48
2019/09/23 04:37:41;;;;;;;3.03;2.34;;;;;;;20.45;51.83;100384.43;;;;-48
2019/09/23 04:40:41;;;;;;;2.50;2.25;;;;;;;20.45;51.86;100380.36;;;;-48
2019/09/23 04:43:41;;;;;;;2.49;2.29;;;;;;;20.45;51.85;100384.33;;;;-48
2019/09/23 04:46:41;;;;;;;2.41;2.21;;;;;;;20.44;51.83;100384.39;;;;-48
2019/09/23 04:49:41;;;;;;;2.39;2.19;;;;;;;20.44;51.85;100385.97;;;;-48
2019/09/23 04:52:41;;;;;;;2.53;2.31;;;;;;;20.45;51.83;100393.38;;;;-48
2019/09/23 04:55:41;;;;;;;2.35;2.15;;;;;;;20.44;51.85;100390.33;;;;-48
2019/09/23 04:58:41;;;;;;;2.45;2.25;;;;;;;20.44;51.85;100392.41;;;;-48
2019/09/23 05:01:41;;;;;;;2.85;2.41;;;;;;;20.44;51.83;100397.94;;;;-48
2019/09/23 05:04:41;;;;;;;2.53;2.17;;;;;;;20.43;51.83;100403.88;;;;-48
2019/09/23 05:07:41;;;;;;;2.40;2.20;;;;;;;20.43;51.82;100411.09;;;;-48
2019/09/23 05:10:41;;;;;;;2.07;1.97;;;;;;;20.44;51.80;100418.17;;;;-48
2019/09/23 05:13:41;;;;;;;2.43;2.23;;;;;;;20.44;51.80;100423.53;;;;-48
2019/09/23 05:16:41;;;;;;;2.29;2.09;;;;;;;20.43;51.82;100422.33;;;;-48
2019/09/23 05:19:41;;;;;;;2.39;2.19;;;;;;;20.43;51.83;100425.01;;;;-48
2019/09/23 05:22:41;;;;;;;2.32;2.12;;;;;;;20.43;51.83;100427.25;;;;-48
2019/09/23 05:25:41;;;;;;;2.26;2.06;;;;;;;20.43;51.85;100432.49;;;;-48
2019/09/23 05:28:41;;;;;;;2.35;2.11;;;;;;;20.44;51.84;100429.14;;;;-48
2019/09/23 05:31:41;;;;;;;2.33;2.05;;;;;;;20.43;51.81;100431.05;;;;-48
2019/09/23 05:34:41;;;;;;;2.22;2.02;;;;;;;20.43;51.82;100435.81;;;;-48
2019/09/23 05:37:41;;;;;;;2.38;2.18;;;;;;;20.43;51.83;100434.41;;;;-48
2019/09/23 05:40:41;;;;;;;2.28;2.08;;;;;;;20.42;51.85;100435.53;;;;-48
2019/09/23 05:43:41;;;;;;;2.29;2.09;;;;;;;20.43;51.84;100438.09;;;;-48
2019/09/23 05:46:41;;;;;;;2.63;2.25;;;;;;;20.42;51.90;100440.57;;;;-48
2019/09/23 05:49:41;;;;;;;2.17;1.97;;;;;;;20.41;51.87;100441.64;;;;-48
2019/09/23 05:52:41;;;;;;;2.15;1.99;;;;;;;20.41;51.87;100443.45;;;;-48
2019/09/23 05:55:41;;;;;;;2.27;2.04;;;;;;;20.44;51.83;100446.02;;;;-51
2019/09/23 05:58:41;;;;;;;2.17;1.98;;;;;;;20.45;52.16;100448.07;;;;-49
2019/09/23 06:01:41;;;;;;;2.27;2.00;;;;;;;20.44;52.14;100450.72;;;;-49
2019/09/23 06:04:41;;;;;;;2.23;2.00;;;;;;;20.45;52.19;100452.77;;;;-49
2019/09/23 06:07:41;;;;;;;2.32;2.11;;;;;;;20.44;52.15;100456.08;;;;-49
2019/09/23 06:10:41;;;;;;;3.42;1.97;;;;;;;20.44;52.16;100451.16;;;;-49
2019/09/23 06:13:41;;;;;;;2.21;2.01;;;;;;;20.44;52.21;100455.23;;;;-49
2019/09/23 06:16:41;;;;;;;2.18;1.98;;;;;;;20.43;52.21;100458.83;;;;-49
2019/09/23 06:19:42;;;;;;;2.25;1.90;;;;;;;20.43;52.17;100461.84;;;;-49
2019/09/23 06:22:41;;;;;;;2.10;1.90;;;;;;;20.43;52.10;100466.21;;;;-49
2019/09/23 06:25:41;;;;;;;2.21;2.01;;;;;;;20.43;52.11;100465.38;;;;-49
2019/09/23 06:28:41;;;;;;;2.20;2.00;;;;;;;20.42;52.17;100466.17;;;;-49
2019/09/23 06:31:41;;;;;;;3.14;1.87;;;;;;;20.43;52.14;100471.97;;;;-49
2019/09/23 06:34:41;;;;;;;1.96;1.77;;;;;;;20.43;52.15;100472.98;;;;-49
2019/09/23 06:37:41;;;;;;;2.19;1.99;;;;;;;20.42;52.10;100477.03;;;;-49
2019/09/23 06:40:41;;;;;;;3.50;1.90;;;;;;;20.42;52.11;100478.05;;;;-49
2019/09/23 06:43:41;;;;;;;1.97;1.81;;;;;;;20.42;52.16;100476.97;;;;-49
2019/09/23 06:46:41;;;;;;;2.09;1.89;;;;;;;20.42;52.10;100480.66;;;;-49
2019/09/23 06:49:41;;;;;;;2.85;1.99;;;;;;;20.41;52.11;100485.48;;;;-49
2019/09/23 06:52:41;;;;;;;1.91;1.75;;;;;;;20.42;52.13;100485.46;;;;-49
2019/09/23 06:55:41;;;;;;;1.99;1.79;;;;;;;20.42;52.07;100489.38;;;;-49
2019/09/23 06:58:41;;;;;;;2.28;1.77;;;;;;;20.41;52.10;100491.69;;;;-49
2019/09/23 07:01:41;;;;;;;2.02;1.80;;;;;;;20.41;52.09;100495.15;;;;-49
2019/09/23 07:04:41;;;;;;;2.29;1.82;;;;;;;20.41;52.07;100498.34;;;;-49
2019/09/23 07:07:41;;;;;;;2.03;1.79;;;;;;;20.41;52.09;100506.62;;;;-49
2019/09/23 07:10:41;;;;;;;2.19;1.99;;;;;;;20.40;52.09;100502.38;;;;-49
2019/09/23 07:13:41;;;;;;;1.97;1.80;;;;;;;20.40;52.07;100508.69;;;;-50
2019/09/23 07:16:41;;;;;;;2.01;1.78;;;;;;;20.41;52.08;100517.25;;;;-49
2019/09/23 07:19:41;;;;;;;2.03;1.83;;;;;;;20.40;52.09;100517.38;;;;-49
2019/09/23 07:22:41;;;;;;;1.99;1.80;;;;;;;20.41;52.08;100523.46;;;;-49
2019/09/23 07:25:41;;;;;;;2.28;1.94;;;;;;;20.41;52.07;100524.00;;;;-49
2019/09/23 07:28:41;;;;;;;2.34;1.89;;;;;;;20.41;52.07;100528.16;;;;-49
2019/09/23 07:31:41;;;;;;;1.99;1.80;;;;;;;20.40;52.05;100524.86;;;;-49
2019/09/23 07:34:41;;;;;;;2.01;1.87;;;;;;;20.41;52.05;100528.16;;;;-49
2019/09/23 07:37:41;;;;;;;2.35;1.87;;;;;;;20.40;52.07;100529.39;;;;-49
2019/09/23 07:40:41;;;;;;;2.09;1.89;;;;;;;20.39;52.04;100532.81;;;;-49
2019/09/23 07:43:41;;;;;;;1.94;1.81;;;;;;;20.39;52.04;100534.66;;;;-59
2019/09/23 07:46:41;;;;;;;1.80;1.70;;;;;;;20.40;52.07;100538.45;;;;-59
2019/09/23 07:49:42;;;;;;;1.97;1.81;;;;;;;20.40;52.06;100537.95;;;;-59
2019/09/23 07:52:41;;;;;;;2.01;1.76;;;;;;;20.39;52.01;100539.35;;;;-58
2019/09/23 07:55:41;;;;;;;1.99;1.77;;;;;;;20.39;52.05;100537.17;;;;-59
2019/09/23 07:58:41;;;;;;;2.23;1.77;;;;;;;20.39;52.04;100540.19;;;;-58
2019/09/23 08:01:41;;;;;;;1.81;1.71;;;;;;;20.38;52.06;100538.80;;;;-59
2019/09/23 08:04:41;;;;;;;1.80;1.70;;;;;;;20.39;52.03;100538.91;;;;-59
2019/09/23 08:07:41;;;;;;;1.90;1.80;;;;;;;20.39;52.03;100537.57;;;;-58
2019/09/23 08:10:41;;;;;;;1.83;1.71;;;;;;;20.39;52.04;100532.30;;;;-59
2019/09/23 08:13:41;;;;;;;1.84;1.74;;;;;;;20.39;52.03;100535.16;;;;-58
2019/09/23 08:16:41;;;;;;;2.03;1.75;;;;;;;20.39;52.07;100543.54;;;;-51
2019/09/23 08:19:41;;;;;;;2.70;1.82;;;;;;;20.41;52.10;100544.53;;;;-55
2019/09/23 08:22:41;;;;;;;1.85;1.64;;;;;;;20.42;52.12;100555.48;;;;-52
2019/09/23 08:25:41;;;;;;;3.03;1.82;;;;;;;20.42;52.32;100550.88;;;;-52
2019/09/23 08:28:41;;;;;;;1.90;1.70;;;;;;;20.45;52.66;100550.23;;;;-51
2019/09/23 08:31:41;;;;;;;2.45;1.89;;;;;;;20.48;52.42;100549.31;;;;-51
2019/09/23 08:34:41;;;;;;;1.91;1.70;;;;;;;20.50;52.50;100553.27;;;;-50
2019/09/23 08:37:41;;;;;;;1.80;1.70;;;;;;;20.50;52.43;100550.05;;;;-53
2019/09/23 08:40:42;;;;;;;2.09;1.80;;;;;;;20.53;52.51;100549.30;;;;-53
2019/09/23 08:43:41;;;;;;;1.80;1.69;;;;;;;20.55;52.54;100557.36;;;;-53
2019/09/23 08:46:41;;;;;;;2.89;1.80;;;;;;;20.55;52.46;100557.83;;;;-57
2019/09/23 08:49:41;;;;;;;2.03;1.70;;;;;;;20.57;52.54;100556.06;;;;-57
2019/09/23 08:52:41;;;;;;;3.16;1.69;;;;;;;20.57;52.39;100562.05;;;;-57
2019/09/23 08:55:41;;;;;;;4.63;1.80;;;;;;;20.58;52.54;100562.52;;;;-51
2019/09/23 08:59:41;;;;;;;2.25;1.75;;;;;;;20.60;52.59;100563.85;;;;-48
2019/09/23 09:02:41;;;;;;;6.11;1.93;;;;;;;20.63;52.67;100560.68;;;;-52
2019/09/23 09:05:41;;;;;;;2.89;1.66;;;;;;;20.65;52.78;100565.39;;;;-52
2019/09/23 09:08:41;;;;;;;3.33;1.88;;;;;;;20.66;52.56;100567.35;;;;-50
2019/09/23 09:11:41;;;;;;;3.47;1.77;;;;;;;20.67;52.53;100568.33;;;;-49
2019/09/23 09:15:41;;;;;;;4.15;1.81;;;;;;;20.70;52.81;100570.54;;;;-51
2019/09/23 09:18:41;;;;;;;3.37;1.70;;;;;;;20.73;52.75;100566.03;;;;-50
2019/09/23 09:21:41;;;;;;;3.99;1.90;;;;;;;20.75;52.68;100567.16;;;;-55
2019/09/23 09:24:43;;;;;;;5.73;1.92;;;;;;;20.77;52.71;100569.15;;;;-54
2019/09/23 09:27:41;;;;;;;3.74;1.76;;;;;;;20.79;52.69;100567.55;;;;-52
2019/09/23 09:30:41;;;;;;;5.73;1.76;;;;;;;20.79;52.96;100573.76;;;;-50
2019/09/23 09:33:41;;;;;;;4.42;1.74;;;;;;;20.79;52.80;100579.30;;;;-50
2019/09/23 09:36:41;;;;;;;3.77;1.86;;;;;;;20.80;52.89;100573.94;;;;-46
2019/09/23 09:39:41;;;;;;;7.34;1.99;;;;;;;20.78;53.00;100571.30;;;;-48
2019/09/23 09:42:40;;;;;;;5.82;1.98;;;;;;;20.80;52.97;100572.89;;;;-49
2019/09/23 09:45:41;;;;;;;4.04;1.88;;;;;;;20.81;52.78;100566.26;;;;-46
2019/09/23 09:51:41;;;;;;;6.05;2.02;;;;;;;20.84;52.98;100571.92;;;;-50
2019/09/23 09:54:41;;;;;;;5.71;1.94;;;;;;;20.85;52.81;100568.91;;;;-57
2019/09/23 09:57:41;;;;;;;6.80;2.11;;;;;;;20.84;52.85;100569.63;;;;-56
2019/09/23 10:00:41;;;;;;;9.17;1.81;;;;;;;20.85;52.82;100562.96;;;;-57
2019/09/23 10:03:41;;;;;;;5.55;1.95;;;;;;;20.85;52.80;100559.88;;;;-55
2019/09/23 10:06:41;;;;;;;4.39;2.07;;;;;;;20.85;52.77;100561.95;;;;-61
2019/09/23 10:09:41;;;;;;;5.93;1.89;;;;;;;20.85;52.89;100558.26;;;;-63
2019/09/23 10:12:41;;;;;;;3.67;1.71;;;;;;;20.86;52.68;100551.66;;;;-53
2019/09/23 10:15:41;;;;;;;5.05;1.96;;;;;;;20.86;52.79;100549.67;;;;-57
2019/09/23 10:18:41;;;;;;;5.65;1.97;;;;;;;20.87;52.66;100541.62;;;;-57
2019/09/23 10:21:41;;;;;;;6.81;1.90;;;;;;;20.87;52.64;100543.73;;;;-48
2019/09/23 10:24:41;;;;;;;4.98;1.91;;;;;;;20.88;52.80;100545.86;;;;-59
2019/09/23 10:27:41;;;;;;;3.48;1.75;;;;;;;20.88;52.65;100544.11;;;;-47
2019/09/23 10:30:41;;;;;;;3.91;1.69;;;;;;;20.89;52.61;100535.83;;;;-49
2019/09/23 10:33:41;;;;;;;3.39;1.73;;;;;;;20.90;52.66;100533.91;;;;-50
2019/09/23 10:36:41;;;;;;;5.85;1.91;;;;;;;20.90;52.75;100534.35;;;;-50
2019/09/23 10:39:41;;;;;;;12.62;2.04;;;;;;;20.90;52.66;100530.55;;;;-48
2019/09/23 10:42:41;;;;;;;2.92;1.82;;;;;;;20.90;52.70;100537.55;;;;-49
2019/09/23 10:45:41;;;;;;;5.17;1.80;;;;;;;20.91;52.61;100530.43;;;;-48
2019/09/23 10:48:41;;;;;;;5.19;1.83;;;;;;;20.91;52.67;100532.81;;;;-48
2019/09/23 10:51:41;;;;;;;6.06;1.78;;;;;;;20.91;52.63;100533.32;;;;-48
2019/09/23 10:54:41;;;;;;;4.86;1.89;;;;;;;20.93;52.60;100531.22;;;;-47
2019/09/23 10:57:41;;;;;;;4.74;1.90;;;;;;;20.93;52.52;100531.28;;;;-51
2019/09/23 11:00:41;;;;;;;2.99;1.71;;;;;;;20.94;52.62;100529.98;;;;-51
2019/09/23 11:04:41;;;;;;;3.87;1.64;;;;;;;20.94;52.47;100527.30;;;;-52
2019/09/23 11:07:41;;;;;;;5.15;1.56;;;;;;;20.94;52.48;100531.09;;;;-50
2019/09/23 11:10:41;;;;;;;3.23;1.60;;;;;;;20.93;52.57;100526.69;;;;-50
2019/09/23 11:13:41;;;;;;;3.49;1.60;;;;;;;20.93;52.54;100524.47;;;;-48
2019/09/23 11:16:41;;;;;;;4.97;1.70;;;;;;;20.94;52.60;100524.77;;;;-48
2019/09/23 11:19:41;;;;;;;2.98;1.60;;;;;;;20.93;52.58;100518.86;;;;-48
2019/09/23 11:22:41;;;;;;;6.51;1.87;;;;;;;20.92;52.43;100518.66;;;;-47
2019/09/23 11:25:41;;;;;;;3.01;1.69;;;;;;;20.93;52.55;100518.96;;;;-48
2019/09/23 11:28:41;;;;;;;6.01;1.87;;;;;;;20.91;52.45;100522.91;;;;-48
2019/09/23 11:31:41;;;;;;;6.57;1.79;;;;;;;20.91;52.43;100522.31;;;;-48
2019/09/23 11:34:41;;;;;;;2.83;1.57;;;;;;;20.91;52.37;100524.42;;;;-57
2019/09/23 11:37:41;;;;;;;2.59;1.60;;;;;;;20.90;52.36;100526.62;;;;-58
2019/09/23 11:40:41;;;;;;;3.29;1.62;;;;;;;20.90;52.32;100524.89;;;;-59
2019/09/23 11:43:41;;;;;;;3.75;1.63;;;;;;;20.90;52.29;100530.49;;;;-58
2019/09/23 11:46:41;;;;;;;6.49;1.70;;;;;;;20.89;52.27;100529.78;;;;-58
2019/09/23 11:49:41;;;;;;;2.74;1.62;;;;;;;20.89;52.26;100527.50;;;;-58
2019/09/23 11:52:41;;;;;;;2.99;1.67;;;;;;;20.87;52.23;100526.28;;;;-57
2019/09/23 11:55:41;;;;;;;2.42;1.59;;;;;;;20.87;52.27;100527.35;;;;-58
2019/09/23 11:58:41;;;;;;;3.01;1.70;;;;;;;20.87;52.22;100531.31;;;;-57
2019/09/23 12:04:52;;;;;;;3.70;1.81;;;;;;;20.86;52.25;100526.00;;;;-58
2019/09/23 12:07:41;;;;;;;2.87;1.56;;;;;;;20.88;52.25;100531.15;;;;-58
2019/09/23 12:11:41;;;;;;;2.62;1.69;;;;;;;20.86;52.21;100529.36;;;;-58
2019/09/23 12:14:41;;;;;;;3.71;1.72;;;;;;;20.86;52.24;100528.86;;;;-57
2019/09/23 12:17:41;;;;;;;2.17;1.59;;;;;;;20.88;52.30;100529.23;;;;-61
2019/09/23 12:20:41;;;;;;;3.74;1.71;;;;;;;20.88;52.40;100527.05;;;;-62
2019/09/23 12:23:41;;;;;;;4.77;1.63;;;;;;;20.91;52.51;100527.00;;;;-57
2019/09/23 12:26:41;;;;;;;5.07;1.72;;;;;;;20.92;52.55;100529.06;;;;-56
2019/09/23 12:29:41;;;;;;;2.92;1.70;;;;;;;20.93;52.48;100528.16;;;;-54
2019/09/23 12:32:41;;;;;;;6.07;1.70;;;;;;;20.94;52.44;100530.82;;;;-55
2019/09/23 12:35:41;;;;;;;3.56;1.71;;;;;;;20.94;52.49;100525.28;;;;-56
2019/09/23 12:38:41;;;;;;;4.97;1.70;;;;;;;20.96;52.39;100527.27;;;;-53
2019/09/23 12:41:41;;;;;;;3.31;1.67;;;;;;;20.96;52.50;100531.00;;;;-58
2019/09/23 12:44:41;;;;;;;3.79;1.77;;;;;;;20.97;52.42;100526.74;;;;-58
2019/09/23 12:47:41;;;;;;;2.23;1.60;;;;;;;20.98;52.49;100523.92;;;;-57
2019/09/23 12:50:41;;;;;;;3.81;1.68;;;;;;;20.98;52.44;100525.54;;;;-58
2019/09/23 12:53:41;;;;;;;3.52;1.53;;;;;;;20.98;52.52;100527.28;;;;-59
2019/09/23 12:56:41;;;;;;;5.20;1.77;;;;;;;20.99;52.48;100526.59;;;;-60
2019/09/23 12:59:41;;;;;;;2.98;1.68;;;;;;;21.00;52.43;100525.02;;;;-54
2019/09/23 13:02:41;;;;;;;2.40;1.52;;;;;;;20.99;52.54;100527.16;;;;-53
2019/09/23 13:05:41;;;;;;;2.53;1.75;;;;;;;21.00;52.50;100528.77;;;;-57
2019/09/23 13:08:41;;;;;;;2.49;1.63;;;;;;;21.00;52.50;100525.86;;;;-54
2019/09/23 13:11:41;;;;;;;3.66;1.71;;;;;;;21.00;52.52;100531.83;;;;-53
2019/09/23 13:14:41;;;;;;;2.36;1.52;;;;;;;21.01;52.44;100533.61;;;;-56
2019/09/23 13:17:41;;;;;;;3.63;1.47;;;;;;;21.01;52.49;100528.58;;;;-59
2019/09/23 13:20:41;;;;;;;2.78;1.61;;;;;;;21.03;52.46;100539.80;;;;-58
2019/09/23 13:23:41;;;;;;;2.65;1.77;;;;;;;21.03;52.53;100540.91;;;;-58
2019/09/23 13:26:41;;;;;;;3.42;1.72;;;;;;;21.02;52.48;100544.50;;;;-59
2019/09/23 13:29:41;;;;;;;2.57;1.60;;;;;;;21.03;52.49;100543.94;;;;-55
2019/09/23 13:32:41;;;;;;;6.25;1.62;;;;;;;21.04;52.50;100551.83;;;;-55
2019/09/23 13:35:41;;;;;;;2.99;1.71;;;;;;;21.05;52.42;100550.67;;;;-55
2019/09/23 13:38:41;;;;;;;4.19;1.41;;;;;;;21.02;52.37;100547.92;;;;-57
2019/09/23 13:41:41;;;;;;;2.30;1.58;;;;;;;21.02;52.42;100543.62;;;;-57
2019/09/23 13:44:41;;;;;;;3.62;1.57;;;;;;;21.00;52.45;100540.56;;;;-58
2019/09/23 13:47:41;;;;;;;1.71;1.47;;;;;;;20.99;52.34;100539.31;;;;-57
2019/09/23 13:50:41;;;;;;;1.61;1.49;;;;;;;20.99;52.33;100541.20;;;;-57
2019/09/23 13:53:41;;;;;;;2.77;1.47;;;;;;;20.98;52.29;100534.67;;;;-57
2019/09/23 13:56:41;;;;;;;2.83;1.59;;;;;;;20.97;52.34;100536.72;;;;-51
2019/09/23 13:59:41;;;;;;;3.26;1.54;;;;;;;20.97;52.33;100535.64;;;;-47
2019/09/23 14:02:41;;;;;;;2.42;1.50;;;;;;;20.95;52.25;100527.10;;;;-48
2019/09/23 14:05:41;;;;;;;3.00;1.37;;;;;;;20.97;52.30;100532.11;;;;-51
2019/09/23 14:08:41;;;;;;;1.55;1.43;;;;;;;20.98;52.29;100538.70;;;;-60
2019/09/23 14:11:41;;;;;;;2.75;1.37;;;;;;;21.00;52.28;100541.30;;;;-51
2019/09/23 14:14:41;;;;;;;2.73;1.45;;;;;;;20.98;52.33;100538.70;;;;-51
2019/09/23 14:17:41;;;;;;;2.49;1.56;;;;;;;20.97;52.42;100533.45;;;;-51
2019/09/23 14:20:41;;;;;;;2.21;1.53;;;;;;;20.97;52.31;100536.72;;;;-51
2019/09/23 14:23:41;;;;;;;1.93;1.40;;;;;;;20.96;52.28;100536.27;;;;-51
2019/09/23 14:26:41;;;;;;;3.49;1.61;;;;;;;20.95;52.26;100536.47;;;;-51
2019/09/23 14:29:41;;;;;;;2.95;1.47;;;;;;;20.94;52.26;100535.96;;;;-53
2019/09/23 14:32:41;;;;;;;2.58;1.51;;;;;;;20.93;52.33;100536.42;;;;-52
2019/09/23 14:35:41;;;;;;;1.55;1.39;;;;;;;20.95;52.21;100538.98;;;;-52
2019/09/23 14:38:41;;;;;;;2.01;1.39;;;;;;;20.93;52.25;100534.64;;;;-53
2019/09/23 14:41:41;;;;;;;3.13;1.43;;;;;;;20.93;52.28;100535.59;;;;-62
2019/09/23 14:44:41;;;;;;;3.11;1.60;;;;;;;20.94;52.31;100541.33;;;;-48
2019/09/23 14:47:41;;;;;;;3.24;1.50;;;;;;;20.96;52.33;100536.27;;;;-48
2019/09/23 14:50:41;;;;;;;1.75;1.32;;;;;;;20.97;52.35;100536.31;;;;-49
2019/09/23 14:53:41;;;;;;;4.10;1.98;;;;;;;20.98;52.48;100543.23;;;;-59
2019/09/23 14:56:41;;;;;;;5.52;1.59;;;;;;;20.99;52.55;100536.56;;;;-63
2019/09/23 14:59:41;;;;;;;1.65;1.41;;;;;;;21.00;52.53;100537.20;;;;-45
2019/09/23 15:02:41;;;;;;;3.13;1.52;;;;;;;21.01;52.57;100534.62;;;;-61
2019/09/23 15:05:41;;;;;;;3.87;1.59;;;;;;;21.00;52.52;100535.36;;;;-62
2019/09/23 15:08:41;;;;;;;3.92;1.50;;;;;;;21.00;52.54;100539.45;;;;-46
2019/09/23 15:11:41;;;;;;;2.98;1.36;;;;;;;20.98;52.54;100537.76;;;;-58
2019/09/23 15:14:41;;;;;;;3.93;1.47;;;;;;;21.00;52.50;100536.59;;;;-58
2019/09/23 15:17:41;;;;;;;3.43;1.51;;;;;;;20.98;52.51;100529.97;;;;-55
2019/09/23 15:20:41;;;;;;;2.75;1.41;;;;;;;21.00;52.53;100534.75;;;;-59
2019/09/23 15:23:41;;;;;;;4.85;1.50;;;;;;;21.00;52.67;100537.17;;;;-51
2019/09/23 15:26:54;;;;;;;4.09;1.41;;;;;;;21.01;52.65;100541.17;;;;-59
2019/09/23 15:29:41;;;;;;;2.97;1.44;;;;;;;21.01;52.71;100543.92;;;;-57
2019/09/23 15:32:41;;;;;;;2.42;1.42;;;;;;;21.01;52.70;100540.67;;;;-51
2019/09/23 15:35:41;;;;;;;1.85;1.40;;;;;;;21.02;52.94;100541.98;;;;-50
2019/09/23 15:38:41;;;;;;;2.79;1.44;;;;;;;21.02;52.84;100541.45;;;;-51
2019/09/23 15:41:41;;;;;;;1.81;1.53;;;;;;;21.03;52.95;100544.27;;;;-51
2019/09/23 15:44:41;;;;;;;1.90;1.49;;;;;;;21.04;52.89;100545.99;;;;-48
2019/09/23 15:47:41;;;;;;;4.05;1.47;;;;;;;21.03;53.02;100548.23;;;;-48
2019/09/23 15:50:41;;;;;;;3.13;1.26;;;;;;;21.06;52.95;100543.69;;;;-48
2019/09/23 15:53:41;;;;;;;5.17;1.39;;;;;;;21.05;52.90;100547.71;;;;-61
2019/09/23 15:56:41;;;;;;;2.45;1.36;;;;;;;21.06;52.79;100553.13;;;;-56
2019/09/23 15:59:41;;;;;;;1.81;1.39;;;;;;;21.06;52.89;100555.47;;;;-47
2019/09/23 16:02:41;;;;;;;2.83;1.30;;;;;;;21.05;52.84;100555.06;;;;-57
2019/09/23 16:05:41;;;;;;;1.78;1.35;;;;;;;21.05;52.65;100555.40;;;;-46
2019/09/23 16:08:41;;;;;;;2.67;1.49;;;;;;;21.04;52.72;100558.72;;;;-46
2019/09/23 16:11:41;;;;;;;3.17;1.48;;;;;;;21.05;52.86;100566.65;;;;-51
2019/09/23 16:14:41;;;;;;;3.15;1.53;;;;;;;21.05;52.83;100566.45;;;;-50
2019/09/23 16:17:41;;;;;;;3.64;1.49;;;;;;;21.06;52.84;100564.11;;;;-48
2019/09/23 16:20:41;;;;;;;3.27;1.41;;;;;;;21.06;52.88;100561.35;;;;-58
2019/09/23 16:23:41;;;;;;;3.65;1.53;;;;;;;21.08;52.89;100561.06;;;;-56
2019/09/23 16:26:41;;;;;;;3.39;1.53;;;;;;;21.08;53.02;100563.05;;;;-55
2019/09/23 16:29:41;;;;;;;3.76;1.36;;;;;;;21.09;52.94;100559.63;;;;-60
2019/09/23 16:32:41;;;;;;;1.75;1.50;;;;;;;21.11;53.06;100560.88;;;;-59
2019/09/23 16:35:41;;;;;;;5.31;1.47;;;;;;;21.12;52.92;100561.72;;;;-61
2019/09/23 16:38:41;;;;;;;3.37;1.51;;;;;;;21.11;53.13;100561.78;;;;-58
2019/09/23 16:41:41;;;;;;;3.81;1.45;;;;;;;21.11;53.06;100561.88;;;;-58
2019/09/23 16:44:41;;;;;;;3.37;1.44;;;;;;;21.12;53.11;100565.41;;;;-59
2019/09/23 16:47:41;;;;;;;3.43;1.58;;;;;;;21.12;53.01;100567.43;;;;-57
2019/09/23 16:50:41;;;;;;;2.44;1.29;;;;;;;21.12;52.96;100571.46;;;;-55
2019/09/23 16:53:41;;;;;;;3.11;1.41;;;;;;;21.12;53.00;100574.25;;;;-47